createdAt,value
2023-03-31T00:00:37.497Z,8.02
2023-03-31T00:03:22.770Z,8.01
2023-03-31T00:06:01.517Z,7.99
2023-03-31T00:08:36.031Z,7.98
2023-03-31T00:11:10.213Z,7.98
2023-03-31T00:13:40.158Z,8.00
2023-03-31T00:16:48.582Z,8.03
2023-03-31T00:19:20.380Z,8.09
2023-03-31T00:21:49.441Z,8.12
2023-03-31T00:24:19.207Z,8.11
2023-03-31T00:26:47.978Z,8.07
2023-03-31T00:29:16.843Z,8.08
2023-03-31T00:31:45.822Z,8.11
2023-03-31T00:34:15.768Z,8.15
2023-03-31T00:36:50.673Z,8.19
2023-03-31T00:39:19.836Z,8.16
2023-03-31T00:41:49.235Z,8.14
2023-03-31T00:44:27.652Z,8.15
2023-03-31T00:47:02.741Z,8.16
2023-03-31T00:49:41.046Z,8.16
2023-03-31T00:52:19.297Z,8.14
2023-03-31T00:54:54.233Z,8.13
2023-03-31T00:57:26.394Z,8.11
2023-03-31T01:00:03.463Z,8.11
2023-03-31T01:02:32.271Z,8.11
2023-03-31T01:05:02.755Z,8.09
2023-03-31T01:07:38.890Z,8.07
2023-03-31T01:10:09.232Z,8.06
2023-03-31T01:12:41.663Z,8.04
2023-03-31T01:15:15.191Z,8.03
2023-03-31T01:17:45.248Z,8.03
2023-03-31T01:20:49.336Z,8.01
2023-03-31T01:23:42.116Z,8.00
2023-03-31T01:26:55.153Z,7.97
2023-03-31T01:29:45.945Z,7.96
2023-03-31T01:32:26.846Z,7.93
2023-03-31T01:35:32.045Z,7.91
2023-03-31T01:38:18.914Z,7.87
2023-03-31T01:40:50.598Z,7.82
2023-03-31T01:43:32.033Z,7.81
2023-03-31T01:46:15.664Z,7.78
2023-03-31T01:49:22.684Z,7.75
2023-03-31T01:52:25.024Z,7.68
2023-03-31T01:55:07.357Z,7.64
2023-03-31T01:57:41.932Z,7.59
2023-03-31T02:00:15.477Z,7.49
2023-03-31T02:03:22.273Z,7.44
2023-03-31T02:05:59.581Z,7.40
2023-03-31T02:08:33.983Z,7.40
2023-03-31T02:11:03.341Z,7.38
2023-03-31T02:13:34.934Z,7.37
2023-03-31T02:16:10.336Z,7.38
2023-03-31T02:18:42.119Z,7.35
2023-03-31T02:21:13.938Z,7.33
2023-03-31T02:23:45.237Z,7.34
2023-03-31T02:26:29.516Z,7.34
2023-03-31T02:28:59.340Z,7.22
2023-03-31T02:31:48.845Z,7.14
2023-03-31T02:34:19.026Z,7.15
2023-03-31T02:36:47.569Z,7.17
2023-03-31T02:39:22.418Z,7.20
2023-03-31T02:41:51.525Z,7.27
2023-03-31T02:44:20.670Z,7.28
2023-03-31T02:46:50.685Z,7.28
2023-03-31T02:49:20.399Z,7.31
2023-03-31T02:52:20.358Z,7.36
2023-03-31T02:55:10.986Z,7.41
2023-03-31T02:58:13.720Z,7.43
2023-03-31T03:01:14.529Z,7.42
2023-03-31T03:03:56.688Z,7.43
2023-03-31T03:06:37.940Z,7.47
2023-03-31T03:09:30.575Z,7.48
2023-03-31T03:12:18.691Z,7.51
2023-03-31T03:14:52.806Z,7.54
2023-03-31T03:17:29.636Z,7.57
2023-03-31T03:20:02.183Z,7.58
2023-03-31T03:22:31.328Z,7.59
2023-03-31T03:24:59.901Z,7.61
2023-03-31T03:27:30.186Z,7.62
2023-03-31T03:29:59.517Z,7.63
2023-03-31T03:32:28.424Z,7.64
2023-03-31T03:34:57.820Z,7.64
2023-03-31T03:37:27.317Z,7.65
2023-03-31T03:39:56.587Z,7.66
2023-03-31T03:42:25.708Z,7.68
2023-03-31T03:44:54.822Z,7.70
2023-03-31T03:47:23.476Z,7.71
2023-03-31T03:49:52.166Z,7.69
2023-03-31T03:52:21.988Z,7.70
2023-03-31T03:54:51.429Z,7.71
2023-03-31T03:57:20.032Z,7.71
2023-03-31T03:59:48.991Z,7.69
2023-03-31T04:02:18.343Z,7.69
2023-03-31T04:04:48.159Z,7.70
2023-03-31T04:07:18.428Z,7.69
2023-03-31T04:09:47.388Z,7.67
2023-03-31T04:12:16.037Z,7.67
2023-03-31T04:14:44.945Z,7.68
2023-03-31T04:17:16.145Z,7.68
2023-03-31T04:19:44.931Z,7.70
2023-03-31T04:22:16.307Z,7.69
2023-03-31T04:24:47.227Z,7.68
2023-03-31T04:27:17.850Z,7.70
2023-03-31T04:29:48.083Z,7.71
2023-03-31T04:32:22.021Z,7.70
2023-03-31T04:35:03.091Z,7.70
2023-03-31T04:37:35.058Z,7.72
2023-03-31T04:40:10.439Z,7.78
2023-03-31T04:42:39.277Z,7.82
2023-03-31T04:45:08.854Z,7.84
2023-03-31T04:47:37.802Z,7.83
2023-03-31T04:50:16.095Z,7.84
2023-03-31T04:52:46.634Z,7.85
2023-03-31T04:55:15.588Z,7.89
2023-03-31T04:57:44.504Z,7.88
2023-03-31T05:00:14.633Z,7.88
2023-03-31T05:02:43.492Z,7.89
2023-03-31T05:05:12.951Z,7.88
2023-03-31T05:07:42.089Z,7.87
2023-03-31T05:10:11.219Z,7.88
2023-03-31T05:12:40.831Z,7.87
2023-03-31T05:15:15.443Z,7.92
2023-03-31T05:17:45.410Z,7.91
2023-03-31T05:20:15.101Z,7.92
2023-03-31T05:22:44.190Z,7.95
2023-03-31T05:25:19.207Z,8.00
2023-03-31T05:27:48.491Z,8.08
2023-03-31T05:30:18.169Z,8.12
2023-03-31T05:32:49.414Z,8.15
2023-03-31T05:35:18.856Z,8.14
2023-03-31T05:37:47.420Z,8.14
2023-03-31T05:40:16.762Z,8.17
2023-03-31T05:42:45.861Z,8.19
2023-03-31T05:45:18.743Z,8.19
2023-03-31T05:47:47.859Z,8.20
2023-03-31T05:50:16.892Z,8.26
2023-03-31T05:52:45.811Z,8.34
2023-03-31T05:55:14.943Z,8.38
2023-03-31T05:57:44.063Z,8.37
2023-03-31T06:00:13.323Z,8.45
2023-03-31T06:02:43.136Z,8.53
2023-03-31T06:05:12.217Z,8.62
2023-03-31T06:07:41.624Z,8.64
2023-03-31T06:10:19.073Z,8.72
2023-03-31T06:12:50.608Z,8.78
2023-03-31T06:15:19.062Z,8.86
2023-03-31T06:17:48.193Z,8.92
2023-03-31T06:20:27.890Z,8.95
2023-03-31T06:22:57.285Z,9.03
2023-03-31T06:25:25.941Z,9.13
2023-03-31T06:27:56.882Z,9.22
2023-03-31T06:30:25.353Z,9.38
2023-03-31T06:32:54.000Z,9.61
2023-03-31T06:35:22.850Z,9.89
2023-03-31T06:37:54.518Z,10.16
2023-03-31T06:40:23.462Z,10.40
2023-03-31T06:42:52.347Z,10.57
2023-03-31T06:45:24.336Z,10.67
2023-03-31T06:47:53.447Z,11.02
2023-03-31T06:50:22.221Z,11.17
2023-03-31T06:52:55.661Z,11.13
2023-03-31T06:55:27.354Z,11.05
2023-03-31T06:57:56.282Z,10.94
2023-03-31T07:00:27.739Z,10.88
2023-03-31T07:02:56.948Z,10.89
2023-03-31T07:05:28.080Z,10.89
2023-03-31T07:07:59.048Z,10.97
2023-03-31T07:10:30.437Z,11.16
2023-03-31T07:12:59.801Z,11.40
2023-03-31T07:15:30.858Z,11.65
2023-03-31T07:18:02.946Z,11.90
2023-03-31T07:20:33.106Z,12.22
2023-03-31T07:23:05.477Z,12.33
2023-03-31T07:25:34.043Z,12.47
2023-03-31T07:28:05.303Z,12.51
2023-03-31T07:30:34.615Z,12.62
2023-03-31T07:33:03.494Z,12.82
2023-03-31T07:35:32.432Z,12.92
2023-03-31T07:38:01.409Z,12.98
2023-03-31T07:40:30.787Z,12.99
2023-03-31T07:42:59.968Z,12.99
2023-03-31T07:45:30.191Z,13.01
2023-03-31T07:48:01.640Z,13.07
2023-03-31T07:50:31.242Z,13.50
2023-03-31T07:53:00.232Z,14.14
2023-03-31T07:55:29.102Z,14.53
2023-03-31T07:57:58.303Z,14.64
2023-03-31T08:00:27.560Z,14.54
2023-03-31T08:02:56.710Z,14.48
2023-03-31T08:05:25.664Z,14.34
2023-03-31T08:07:57.492Z,14.18
2023-03-31T08:10:28.286Z,14.01
2023-03-31T08:12:57.054Z,13.96
2023-03-31T08:19:29.184Z,13.85
2023-03-31T08:21:57.858Z,13.82
2023-03-31T08:24:26.363Z,13.89
2023-03-31T08:26:54.995Z,14.00
2023-03-31T08:29:23.626Z,14.07
2023-03-31T08:31:52.149Z,14.13
2023-03-31T08:34:21.293Z,14.25
2023-03-31T08:36:50.622Z,14.34
2023-03-31T08:39:19.124Z,14.33
2023-03-31T08:41:57.573Z,14.35
2023-03-31T08:44:50.742Z,14.28
2023-03-31T08:47:24.268Z,14.35
2023-03-31T08:49:59.077Z,14.50
2023-03-31T08:52:35.009Z,14.95
2023-03-31T08:55:08.189Z,15.20
2023-03-31T08:57:47.518Z,15.16
2023-03-31T09:00:19.063Z,14.98
2023-03-31T09:03:05.799Z,14.80
2023-03-31T09:06:00.137Z,14.62
2023-03-31T09:08:41.657Z,14.57
2023-03-31T09:11:16.890Z,14.55
2023-03-31T09:14:04.513Z,14.51
2023-03-31T09:16:43.837Z,14.79
2023-03-31T09:19:22.657Z,15.55
2023-03-31T09:21:56.835Z,16.29
2023-03-31T09:24:32.755Z,17.19
2023-03-31T09:27:08.870Z,17.39
2023-03-31T09:30:12.545Z,17.60
2023-03-31T09:32:42.074Z,17.49
2023-03-31T09:35:22.063Z,17.18
2023-03-31T09:37:51.439Z,16.91
2023-03-31T09:40:25.788Z,16.66
2023-03-31T09:43:02.157Z,16.33
2023-03-31T09:45:31.825Z,16.07
2023-03-31T09:48:08.132Z,15.80
2023-03-31T09:51:00.998Z,15.82
2023-03-31T09:53:56.887Z,16.12
2023-03-31T09:56:54.102Z,16.73
2023-03-31T09:59:31.397Z,17.16
2023-03-31T10:02:03.872Z,18.12
2023-03-31T10:04:35.594Z,19.18
2023-03-31T10:07:05.764Z,20.52
2023-03-31T10:09:38.411Z,21.08
2023-03-31T10:12:16.100Z,22.61
2023-03-31T10:14:47.551Z,23.54
2023-03-31T10:17:21.620Z,24.41
2023-03-31T10:19:54.818Z,24.18
2023-03-31T10:22:23.201Z,23.36
2023-03-31T10:24:53.434Z,23.26
2023-03-31T10:27:26.610Z,23.25
2023-03-31T10:29:58.387Z,23.30
2023-03-31T10:32:29.562Z,23.19
2023-03-31T10:35:04.355Z,22.69
2023-03-31T10:37:36.045Z,22.61
2023-03-31T10:40:18.626Z,22.75
2023-03-31T10:42:59.411Z,22.80
2023-03-31T10:45:37.784Z,22.73
2023-03-31T10:48:40.151Z,22.81
2023-03-31T10:51:28.264Z,22.27
2023-03-31T10:54:03.698Z,21.73
2023-03-31T10:56:48.667Z,21.24
2023-03-31T10:59:41.627Z,20.95
2023-03-31T11:02:22.647Z,20.67
2023-03-31T11:05:16.370Z,20.74
2023-03-31T11:07:51.434Z,20.42
2023-03-31T11:10:41.447Z,20.29
2023-03-31T11:13:44.585Z,20.25
2023-03-31T11:16:45.065Z,19.97
2023-03-31T11:19:35.494Z,20.12
2023-03-31T11:22:21.856Z,20.08
2023-03-31T11:25:25.658Z,19.69
2023-03-31T11:28:00.349Z,19.53
2023-03-31T11:31:30.394Z,19.40
2023-03-31T11:34:29.765Z,19.87
2023-03-31T11:37:46.086Z,20.11
2023-03-31T11:40:47.959Z,19.68
2023-03-31T11:43:43.284Z,19.18
2023-03-31T11:46:40.872Z,19.44
2023-03-31T11:49:23.280Z,19.49
2023-03-31T11:51:54.991Z,19.21
2023-03-31T11:54:46.429Z,19.29
2023-03-31T11:57:45.624Z,19.26
2023-03-31T12:00:36.615Z,19.11
2023-03-31T12:03:17.177Z,18.80
2023-03-31T12:05:50.784Z,18.60
2023-03-31T12:08:54.447Z,18.49
2023-03-31T12:11:37.921Z,18.20
2023-03-31T12:14:26.493Z,17.95
2023-03-31T12:17:26.565Z,17.44
2023-03-31T12:20:00.165Z,16.96
2023-03-31T12:22:43.694Z,16.67
2023-03-31T12:25:15.202Z,16.45
2023-03-31T12:27:49.917Z,16.45
2023-03-31T12:30:20.843Z,16.37
2023-03-31T12:32:56.170Z,16.38
2023-03-31T12:35:37.474Z,16.37
2023-03-31T12:38:23.576Z,16.32
2023-03-31T12:41:04.811Z,16.33
2023-03-31T12:44:10.554Z,16.22
2023-03-31T12:47:28.369Z,16.05
2023-03-31T12:50:14.798Z,15.88
2023-03-31T12:52:55.638Z,15.78
2023-03-31T12:55:29.139Z,15.70
2023-03-31T12:58:29.602Z,15.55
2023-03-31T13:01:06.282Z,15.40
2023-03-31T13:04:01.575Z,15.30
2023-03-31T13:06:30.027Z,15.12
2023-03-31T13:09:03.417Z,15.03
2023-03-31T13:11:37.787Z,14.95
2023-03-31T13:14:17.671Z,14.97
2023-03-31T13:16:47.664Z,15.14
2023-03-31T13:19:37.029Z,15.32
2023-03-31T13:22:06.420Z,15.40
2023-03-31T13:24:35.711Z,15.42
2023-03-31T13:27:36.816Z,15.37
2023-03-31T13:30:07.907Z,15.18
2023-03-31T13:32:37.606Z,14.98
2023-03-31T13:35:14.158Z,14.89
2023-03-31T13:37:48.341Z,14.77
2023-03-31T13:40:19.878Z,14.72
2023-03-31T13:42:54.611Z,14.71
2023-03-31T13:45:27.770Z,14.67
2023-03-31T13:48:00.226Z,14.70
2023-03-31T13:50:46.995Z,14.71
2023-03-31T13:53:18.639Z,14.71
2023-03-31T13:56:14.160Z,14.77
2023-03-31T13:58:41.166Z,14.92
2023-03-31T14:01:23.048Z,14.93
2023-03-31T14:04:09.853Z,14.91
2023-03-31T14:06:56.940Z,14.96
2023-03-31T14:09:29.507Z,14.92
2023-03-31T14:12:00.462Z,14.96
2023-03-31T14:14:30.054Z,15.05
2023-03-31T14:17:05.041Z,15.14
2023-03-31T14:19:52.423Z,15.12
2023-03-31T14:22:20.938Z,14.87
2023-03-31T14:25:13.111Z,14.75
2023-03-31T14:27:41.342Z,14.66
2023-03-31T14:30:18.738Z,14.56
2023-03-31T14:33:01.516Z,14.51
2023-03-31T14:35:38.996Z,14.45
2023-03-31T14:38:12.296Z,14.39
2023-03-31T14:40:48.485Z,14.36
2023-03-31T14:43:30.349Z,14.28
2023-03-31T14:46:01.330Z,14.15
2023-03-31T14:48:32.465Z,14.00
2023-03-31T14:51:02.518Z,13.88
2023-03-31T14:53:33.862Z,13.86
2023-03-31T14:56:17.251Z,13.81
2023-03-31T14:58:49.155Z,13.80
2023-03-31T15:01:21.681Z,13.79
2023-03-31T15:03:50.385Z,13.66
2023-03-31T15:06:18.578Z,13.58
2023-03-31T15:08:47.674Z,13.52
2023-03-31T15:11:19.533Z,13.31
2023-03-31T15:14:04.231Z,12.57
2023-03-31T15:17:21.117Z,12.01
2023-03-31T15:19:54.582Z,11.65
2023-03-31T15:22:26.231Z,11.50
2023-03-31T15:24:55.218Z,11.42
2023-03-31T15:27:44.362Z,11.36
2023-03-31T15:30:18.472Z,11.24
2023-03-31T15:32:47.263Z,11.18
2023-03-31T15:35:38.468Z,11.12
2023-03-31T15:38:07.047Z,10.88
2023-03-31T15:40:40.676Z,10.69
2023-03-31T15:43:38.997Z,10.55
2023-03-31T15:46:11.073Z,10.43
2023-03-31T15:48:50.156Z,10.37
2023-03-31T15:51:24.721Z,10.33
2023-03-31T15:53:54.863Z,10.29
2023-03-31T15:56:36.498Z,10.29
2023-03-31T15:59:10.305Z,10.37
2023-03-31T16:01:44.458Z,10.41
2023-03-31T16:04:14.393Z,10.51
2023-03-31T16:06:55.119Z,10.51
2023-03-31T16:09:29.600Z,10.45
2023-03-31T16:12:01.964Z,10.43
2023-03-31T16:14:43.333Z,10.42
2023-03-31T16:17:38.690Z,10.41
2023-03-31T16:20:23.114Z,10.47
2023-03-31T16:22:54.046Z,10.46
2023-03-31T16:25:24.446Z,10.43
2023-03-31T16:28:01.352Z,10.41
2023-03-31T16:30:39.674Z,10.37
2023-03-31T16:33:12.709Z,10.31
2023-03-31T16:35:42.892Z,10.27
2023-03-31T16:38:13.669Z,10.22
2023-03-31T16:40:43.625Z,10.18
2023-03-31T16:43:15.033Z,10.18
2023-03-31T16:45:45.887Z,10.16
2023-03-31T16:48:17.741Z,10.11
2023-03-31T16:50:47.817Z,10.06
2023-03-31T16:53:19.385Z,10.02
2023-03-31T16:55:47.804Z,9.95
2023-03-31T16:58:16.887Z,9.93
2023-03-31T17:00:46.317Z,9.90
2023-03-31T17:03:16.924Z,9.87
2023-03-31T17:05:47.158Z,9.83
2023-03-31T17:08:17.198Z,9.79
2023-03-31T17:10:54.411Z,9.75
2023-03-31T17:13:24.661Z,9.73
2023-03-31T17:16:01.479Z,9.69
2023-03-31T17:18:41.722Z,9.68
2023-03-31T17:21:14.621Z,9.67
2023-03-31T17:23:43.404Z,9.65
2023-03-31T17:26:19.507Z,9.64
2023-03-31T17:28:48.769Z,9.64
2023-03-31T17:31:22.893Z,9.60
2023-03-31T17:33:54.926Z,9.59
2023-03-31T17:36:24.420Z,9.57
2023-03-31T17:38:56.412Z,9.58
2023-03-31T17:41:26.665Z,9.55
2023-03-31T17:43:55.505Z,9.53
2023-03-31T17:46:27.719Z,9.53
2023-03-31T17:48:59.094Z,9.51
2023-03-31T17:51:28.774Z,9.51
2023-03-31T17:53:57.894Z,9.53
2023-03-31T17:56:28.844Z,9.57
2023-03-31T17:59:00.985Z,9.58
2023-03-31T18:01:33.208Z,9.59
2023-03-31T18:04:04.367Z,9.59
2023-03-31T18:06:33.786Z,9.61
2023-03-31T18:09:03.740Z,9.64
2023-03-31T18:11:33.343Z,9.65
2023-03-31T18:14:03.864Z,9.66
2023-03-31T18:16:36.128Z,9.64
2023-03-31T18:19:05.879Z,9.64
2023-03-31T18:21:41.348Z,9.64
2023-03-31T18:24:12.931Z,9.68
2023-03-31T18:26:42.874Z,9.72
2023-03-31T18:29:11.895Z,9.77
2023-03-31T18:31:41.075Z,9.80
2023-03-31T18:34:10.396Z,9.82
2023-03-31T18:36:40.446Z,9.85
2023-03-31T18:39:10.132Z,9.85
2023-03-31T18:41:49.041Z,9.83
2023-03-31T18:44:18.608Z,9.76
2023-03-31T18:46:48.710Z,9.77
2023-03-31T18:49:21.405Z,9.78
2023-03-31T18:51:54.074Z,9.78
2023-03-31T18:54:23.297Z,9.78
2023-03-31T18:56:53.500Z,9.75
2023-03-31T18:59:23.780Z,9.73
2023-03-31T19:01:55.753Z,9.67
2023-03-31T19:04:29.461Z,9.66
2023-03-31T19:06:59.439Z,9.64
2023-03-31T19:09:29.611Z,9.62
2023-03-31T19:11:59.595Z,9.63
2023-03-31T19:14:31.037Z,9.65
2023-03-31T19:17:27.026Z,9.67
2023-03-31T19:19:57.515Z,9.70
2023-03-31T19:22:30.424Z,9.72
2023-03-31T19:25:01.389Z,9.74
2023-03-31T19:27:31.038Z,9.74
2023-03-31T19:30:00.995Z,9.67
2023-03-31T19:32:31.543Z,9.68
2023-03-31T19:35:01.496Z,9.71
2023-03-31T19:37:31.035Z,9.71
2023-03-31T19:40:04.343Z,9.74
2023-03-31T19:42:37.104Z,9.73
2023-03-31T19:45:10.159Z,9.70
2023-03-31T19:47:40.172Z,9.69
2023-03-31T19:50:10.882Z,9.70
2023-03-31T19:52:46.780Z,9.70
2023-03-31T19:55:18.358Z,9.71
2023-03-31T19:57:53.182Z,9.68
2023-03-31T20:00:23.161Z,9.67
2023-03-31T20:02:53.696Z,9.65
2023-03-31T20:05:27.061Z,9.63
2023-03-31T20:07:59.294Z,9.60
2023-03-31T20:10:30.378Z,9.59
2023-03-31T20:13:02.572Z,9.58
2023-03-31T20:15:39.561Z,9.57
2023-03-31T20:18:12.110Z,9.55
2023-03-31T20:20:41.480Z,9.54
2023-03-31T20:23:11.866Z,9.49
2023-03-31T20:25:41.317Z,9.45
2023-03-31T20:28:11.051Z,9.44
2023-03-31T20:30:40.780Z,9.43
2023-03-31T20:33:10.419Z,9.44
2023-03-31T20:35:40.255Z,9.41
2023-03-31T20:38:11.519Z,9.42
2023-03-31T20:40:47.980Z,9.40
2023-03-31T20:43:17.786Z,9.33
2023-03-31T20:45:47.460Z,9.33
2023-03-31T20:48:19.708Z,9.35
2023-03-31T20:50:49.291Z,9.35
2023-03-31T20:53:17.804Z,9.36
2023-03-31T20:55:47.800Z,9.36
2023-03-31T20:58:17.781Z,9.36
2023-03-31T21:00:46.795Z,9.35
2023-03-31T21:03:16.449Z,9.36
2023-03-31T21:05:46.641Z,9.37
2023-03-31T21:08:16.010Z,9.38
2023-03-31T21:10:45.922Z,9.37
2023-03-31T21:13:18.320Z,9.35
2023-03-31T21:16:36.003Z,9.35
2023-03-31T21:19:04.739Z,9.31
2023-03-31T21:21:34.052Z,9.31
2023-03-31T21:24:02.608Z,9.31
2023-03-31T21:26:31.043Z,9.28
2023-03-31T21:28:59.409Z,9.24
2023-03-31T21:31:28.300Z,9.22
2023-03-31T21:33:58.055Z,9.16
2023-03-31T21:36:27.111Z,9.12
2023-03-31T21:38:57.724Z,9.09
2023-03-31T21:41:28.307Z,9.10
2023-03-31T21:43:56.886Z,9.10
2023-03-31T21:46:27.853Z,9.07
2023-03-31T21:48:57.780Z,9.06
2023-03-31T21:51:27.174Z,9.05
2023-03-31T21:53:56.317Z,9.03
2023-03-31T21:56:28.334Z,9.00
2023-03-31T21:59:01.484Z,8.97
2023-03-31T22:01:31.029Z,8.95
2023-03-31T22:03:59.844Z,8.93
2023-03-31T22:06:29.292Z,8.94
2023-03-31T22:08:57.878Z,8.95
2023-03-31T22:11:27.454Z,8.93
2023-03-31T22:13:56.853Z,8.92
2023-03-31T22:16:25.936Z,8.91
2023-03-31T22:18:55.128Z,8.90
2023-03-31T22:21:27.770Z,8.90
2023-03-31T22:23:57.641Z,8.89
2023-03-31T22:26:28.896Z,8.87
2023-03-31T22:28:57.693Z,8.85
2023-03-31T22:31:27.284Z,8.87
2023-03-31T22:33:56.090Z,8.85
2023-03-31T22:36:24.688Z,8.83
2023-03-31T22:38:53.657Z,8.80
2023-03-31T22:41:22.347Z,8.78
2023-03-31T22:43:52.450Z,8.78
2023-03-31T22:46:21.502Z,8.79
2023-03-31T22:48:51.212Z,8.78
2023-03-31T22:51:19.560Z,8.77
2023-03-31T22:53:52.125Z,8.77
2023-03-31T22:56:21.499Z,8.77
2023-03-31T22:58:50.715Z,8.79
2023-03-31T23:01:20.402Z,8.78
2023-03-31T23:03:50.367Z,8.78
2023-03-31T23:06:18.825Z,8.79
2023-03-31T23:08:49.368Z,8.80
2023-03-31T23:11:19.186Z,8.80
2023-03-31T23:13:47.423Z,8.80
2023-03-31T23:16:20.399Z,8.80
2023-03-31T23:18:50.053Z,8.79
2023-03-31T23:21:20.496Z,8.77
2023-03-31T23:23:54.108Z,8.73
2023-03-31T23:26:24.568Z,8.73
2023-03-31T23:28:53.434Z,8.75
2023-03-31T23:31:27.316Z,8.78
2023-03-31T23:33:56.064Z,8.77
2023-03-31T23:36:26.040Z,8.73
2023-03-31T23:38:55.741Z,8.76
2023-03-31T23:41:26.666Z,8.78
2023-03-31T23:43:58.021Z,8.79
2023-03-31T23:46:29.074Z,8.80
2023-03-31T23:48:57.752Z,8.82
2023-03-31T23:51:26.723Z,8.82
2023-03-31T23:53:55.455Z,8.79
2023-03-31T23:56:23.877Z,8.78
2023-03-31T23:58:52.266Z,8.76
